createdAt,value
2019-06-15T00:02:11.890Z,24.50
2019-06-15T00:04:38.242Z,24.40
2019-06-15T00:07:04.661Z,24.30
2019-06-15T00:09:30.946Z,24.30
2019-06-15T00:11:57.231Z,24.20
2019-06-15T00:14:23.534Z,24.20
2019-06-15T00:16:49.934Z,24.20
2019-06-15T00:19:16.240Z,24.10
2019-06-15T00:21:42.908Z,24.10
2019-06-15T00:24:09.205Z,24.10
2019-06-15T00:26:35.549Z,24.10
2019-06-15T00:29:01.828Z,24.10
2019-06-15T00:31:28.148Z,24.00
2019-06-15T00:33:54.456Z,23.90
2019-06-15T00:36:20.954Z,23.90
2019-06-15T00:38:47.616Z,23.80
2019-06-15T00:41:13.948Z,23.80
2019-06-15T00:43:40.437Z,23.80
2019-06-15T00:46:06.829Z,23.80
2019-06-15T00:48:33.152Z,23.80
2019-06-15T00:50:59.442Z,23.90
2019-06-15T00:53:25.766Z,23.80
2019-06-15T00:55:52.304Z,23.80
2019-06-15T00:58:18.627Z,23.80
2019-06-15T01:00:44.941Z,23.70
2019-06-15T01:03:11.256Z,23.70
2019-06-15T01:05:37.713Z,23.70
2019-06-15T01:08:04.130Z,23.70
2019-06-15T01:10:30.540Z,23.70
2019-06-15T01:12:56.865Z,23.60
2019-06-15T01:15:23.153Z,23.50
2019-06-15T01:17:49.448Z,23.50
2019-06-15T01:20:16.071Z,23.40
2019-06-15T01:22:42.385Z,23.30
2019-06-15T01:25:08.879Z,23.30
2019-06-15T01:27:35.195Z,23.20
2019-06-15T01:30:01.898Z,23.10
2019-06-15T01:32:28.187Z,23.10
2019-06-15T01:34:54.492Z,23.10
2019-06-15T01:37:20.880Z,23.10
2019-06-15T01:39:47.174Z,23.00
2019-06-15T01:42:13.474Z,23.00
2019-06-15T01:44:39.768Z,23.00
2019-06-15T01:47:06.070Z,23.00
2019-06-15T01:49:32.577Z,23.00
2019-06-15T01:51:58.890Z,23.00
2019-06-15T01:54:25.196Z,23.00
2019-06-15T01:56:51.498Z,23.00
2019-06-15T01:59:17.799Z,23.00
2019-06-15T02:01:44.112Z,23.10
2019-06-15T02:04:10.417Z,23.20
2019-06-15T02:06:36.703Z,23.40
2019-06-15T02:09:04.551Z,23.20
2019-06-15T02:11:30.845Z,23.00
2019-06-15T02:13:57.160Z,22.90
2019-06-15T02:16:23.444Z,22.80
2019-06-15T02:18:49.760Z,22.90
2019-06-15T02:21:16.049Z,22.80
2019-06-15T02:23:42.406Z,22.90
2019-06-15T02:26:08.684Z,23.10
2019-06-15T02:28:34.998Z,23.00
2019-06-15T02:31:01.509Z,23.20
2019-06-15T02:33:27.841Z,23.10
2019-06-15T02:35:54.125Z,23.20
2019-06-15T02:38:20.437Z,23.10
2019-06-15T02:40:46.820Z,23.10
2019-06-15T02:43:13.244Z,23.10
2019-06-15T02:45:39.522Z,23.10
2019-06-15T02:48:05.820Z,23.00
2019-06-15T02:50:32.114Z,22.70
2019-06-15T02:52:58.400Z,22.60
2019-06-15T02:55:24.744Z,22.20
2019-06-15T02:57:51.086Z,22.00
2019-06-15T03:00:23.829Z,22.00
2019-06-15T03:02:50.108Z,22.10
2019-06-15T03:05:16.420Z,22.20
2019-06-15T03:07:42.974Z,22.10
2019-06-15T03:10:09.564Z,22.00
2019-06-15T03:12:37.157Z,21.80
2019-06-15T03:15:03.888Z,21.80
2019-06-15T03:17:30.186Z,21.90
2019-06-15T03:19:56.493Z,22.00
2019-06-15T03:22:22.799Z,22.00
2019-06-15T03:24:49.101Z,21.90
2019-06-15T03:27:15.496Z,21.80
2019-06-15T03:29:41.800Z,21.80
2019-06-15T03:32:08.089Z,21.80
2019-06-15T03:34:34.388Z,21.60
2019-06-15T03:37:00.682Z,21.50
2019-06-15T03:39:26.980Z,21.50
2019-06-15T03:41:53.276Z,21.40
2019-06-15T03:44:19.798Z,20.80
2019-06-15T03:46:46.084Z,20.20
2019-06-15T03:49:12.383Z,20.10
2019-06-15T03:51:38.663Z,20.20
2019-06-15T03:54:04.994Z,20.30
2019-06-15T03:56:31.284Z,20.60
2019-06-15T03:58:57.560Z,20.70
2019-06-15T04:01:27.533Z,20.90
2019-06-15T04:03:53.828Z,20.90
2019-06-15T04:06:20.116Z,20.90
2019-06-15T04:08:46.607Z,20.90
2019-06-15T04:11:12.913Z,20.70
2019-06-15T04:13:39.500Z,20.70
2019-06-15T04:16:05.801Z,20.50
2019-06-15T04:18:32.185Z,20.40
2019-06-15T04:20:58.485Z,20.60
2019-06-15T04:23:24.779Z,20.70
2019-06-15T04:25:51.076Z,20.70
2019-06-15T04:28:17.359Z,20.90
2019-06-15T04:30:43.648Z,20.90
2019-06-15T04:33:10.688Z,20.90
2019-06-15T04:35:37.071Z,20.90
2019-06-15T04:38:03.366Z,20.80
2019-06-15T04:40:29.697Z,20.90
2019-06-15T04:42:55.978Z,20.80
2019-06-15T04:45:22.278Z,20.90
2019-06-15T04:47:48.566Z,21.00
2019-06-15T04:50:14.981Z,21.10
2019-06-15T04:52:41.376Z,21.00
2019-06-15T04:55:07.872Z,20.90
2019-06-15T04:57:34.266Z,21.00
2019-06-15T05:00:00.552Z,21.00
2019-06-15T05:02:27.494Z,21.10
2019-06-15T05:04:53.935Z,21.00
2019-06-15T05:07:20.228Z,20.80
2019-06-15T05:09:46.511Z,20.70
2019-06-15T05:12:12.809Z,20.60
2019-06-15T05:14:39.126Z,20.70
2019-06-15T05:17:05.425Z,20.70
2019-06-15T05:19:31.812Z,20.70
2019-06-15T05:21:58.134Z,20.60
2019-06-15T05:24:24.399Z,20.40
2019-06-15T05:27:05.287Z,20.40
2019-06-15T05:29:18.916Z,20.50
2019-06-15T05:31:45.284Z,20.50
2019-06-15T05:34:11.598Z,20.40
2019-06-15T05:36:37.891Z,20.50
2019-06-15T05:39:04.939Z,20.50
2019-06-15T05:41:31.220Z,20.60
2019-06-15T05:43:57.514Z,20.60
2019-06-15T05:46:23.822Z,20.60
2019-06-15T05:48:50.108Z,20.50
2019-06-15T05:51:16.413Z,20.70
2019-06-15T05:53:42.696Z,20.60
2019-06-15T05:56:08.973Z,20.80
2019-06-15T05:58:35.277Z,20.80
2019-06-15T06:01:01.579Z,20.70
2019-06-15T06:03:27.875Z,20.80
2019-06-15T06:05:54.157Z,20.70
2019-06-15T06:08:20.732Z,20.70
2019-06-15T06:10:47.028Z,20.70
2019-06-15T06:13:13.580Z,20.90
2019-06-15T06:15:39.915Z,21.00
2019-06-15T06:18:06.215Z,21.10
2019-06-15T06:20:32.790Z,21.20
2019-06-15T06:22:59.087Z,21.30
2019-06-15T06:25:25.373Z,21.40
2019-06-15T06:27:51.672Z,21.50
2019-06-15T06:30:18.218Z,21.50
2019-06-15T06:32:44.585Z,21.60
2019-06-15T06:35:11.075Z,21.60
2019-06-15T06:37:37.384Z,21.60
2019-06-15T06:40:04.403Z,21.20
2019-06-15T06:42:30.812Z,21.20
2019-06-15T06:44:57.115Z,21.40
2019-06-15T06:47:23.411Z,21.50
2019-06-15T06:49:49.820Z,21.50
2019-06-15T06:52:16.103Z,21.60
2019-06-15T06:54:42.407Z,21.50
2019-06-15T06:57:08.912Z,21.40
2019-06-15T06:59:35.221Z,21.30
2019-06-15T07:02:01.523Z,21.40
2019-06-15T07:04:27.934Z,21.50
2019-06-15T07:06:54.396Z,21.60
2019-06-15T07:09:20.707Z,21.70
2019-06-15T07:11:46.974Z,21.80
2019-06-15T07:14:13.277Z,21.90
2019-06-15T07:16:39.567Z,21.70
2019-06-15T07:19:05.871Z,21.80
2019-06-15T07:21:32.181Z,22.10
2019-06-15T07:23:58.527Z,22.10
2019-06-15T07:26:24.814Z,22.20
2019-06-15T07:28:51.247Z,22.40
2019-06-15T07:31:17.603Z,22.30
2019-06-15T07:33:43.923Z,22.20
2019-06-15T07:36:10.229Z,22.20
2019-06-15T07:38:36.531Z,22.20
2019-06-15T07:41:02.912Z,22.20
2019-06-15T07:43:29.374Z,22.30
2019-06-15T07:45:55.681Z,22.40
2019-06-15T07:48:22.008Z,22.50
2019-06-15T07:50:48.316Z,22.70
2019-06-15T07:53:14.622Z,22.70
2019-06-15T07:55:40.998Z,22.80
2019-06-15T07:58:23.370Z,22.80
2019-06-15T08:00:35.488Z,22.80
2019-06-15T08:03:01.806Z,22.90
2019-06-15T08:05:28.100Z,23.00
2019-06-15T08:07:54.405Z,23.10
2019-06-15T08:10:20.708Z,23.20
2019-06-15T08:12:47.018Z,23.10
2019-06-15T08:15:13.415Z,23.10
2019-06-15T08:17:39.704Z,23.20
2019-06-15T08:20:07.487Z,23.30
2019-06-15T08:22:33.772Z,23.30
2019-06-15T08:25:00.064Z,23.50
2019-06-15T08:27:26.351Z,23.70
2019-06-15T08:29:52.664Z,23.90
2019-06-15T08:32:18.949Z,23.90
2019-06-15T08:34:45.288Z,24.00
2019-06-15T08:37:11.566Z,24.10
2019-06-15T08:39:37.861Z,24.00
2019-06-15T08:42:04.143Z,24.10
2019-06-15T08:44:30.449Z,24.00
2019-06-15T08:46:59.293Z,24.20
2019-06-15T08:49:24.930Z,24.20
2019-06-15T08:51:51.212Z,24.30
2019-06-15T08:54:18.620Z,24.30
2019-06-15T08:56:44.916Z,24.40
2019-06-15T08:59:11.217Z,24.40
2019-06-15T09:01:37.500Z,24.50
2019-06-15T09:04:03.829Z,24.70
2019-06-15T09:06:30.116Z,24.80
2019-06-15T09:08:56.418Z,25.00
2019-06-15T09:11:22.718Z,25.10
2019-06-15T09:13:48.999Z,25.10
2019-06-15T09:16:15.328Z,25.30
2019-06-15T09:18:41.624Z,25.50
2019-06-15T09:21:07.913Z,25.50
2019-06-15T09:23:34.198Z,25.30
2019-06-15T09:26:00.879Z,25.10
2019-06-15T09:28:27.316Z,24.80
2019-06-15T09:30:53.601Z,24.80
2019-06-15T09:33:19.883Z,25.00
2019-06-15T09:35:46.188Z,25.10
2019-06-15T09:38:12.720Z,25.30
2019-06-15T09:40:39.084Z,25.50
2019-06-15T09:43:05.377Z,25.40
2019-06-15T09:45:33.040Z,25.40
2019-06-15T09:48:00.000Z,25.30
2019-06-15T09:50:26.287Z,25.30
2019-06-15T09:52:52.575Z,25.40
2019-06-15T09:55:18.992Z,25.30
2019-06-15T09:57:45.292Z,25.20
2019-06-15T10:00:11.809Z,25.10
2019-06-15T10:02:38.108Z,25.10
2019-06-15T10:05:04.693Z,25.30
2019-06-15T10:07:31.076Z,25.50
2019-06-15T10:09:57.516Z,25.40
2019-06-15T10:12:23.825Z,25.00
2019-06-15T10:14:50.161Z,24.90
2019-06-15T10:17:16.480Z,25.00
2019-06-15T10:19:42.756Z,25.20
2019-06-15T10:22:09.073Z,25.10
2019-06-15T10:24:35.481Z,25.00
2019-06-15T10:27:01.822Z,25.10
2019-06-15T10:29:41.210Z,25.30
2019-06-15T10:31:56.684Z,24.60
2019-06-15T10:34:22.987Z,24.50
2019-06-15T10:36:49.451Z,24.50
2019-06-15T10:39:15.764Z,24.30
2019-06-15T10:41:42.052Z,24.20
2019-06-15T10:44:08.349Z,23.90
2019-06-15T10:46:34.643Z,23.60
2019-06-15T10:49:01.094Z,23.90
2019-06-15T10:51:27.508Z,23.90
2019-06-15T10:53:53.789Z,23.90
2019-06-15T10:56:20.120Z,23.60
2019-06-15T10:58:46.415Z,23.40
2019-06-15T11:01:12.850Z,23.40
2019-06-15T11:03:39.239Z,23.50
2019-06-15T11:06:05.640Z,23.70
2019-06-15T11:08:31.937Z,23.70
2019-06-15T11:11:02.654Z,23.90
2019-06-15T11:13:29.155Z,23.90
2019-06-15T11:15:56.034Z,24.00
2019-06-15T11:18:22.329Z,23.90
2019-06-15T11:20:48.737Z,23.50
2019-06-15T11:23:15.032Z,23.30
2019-06-15T11:25:41.389Z,23.40
2019-06-15T11:28:07.761Z,23.30
2019-06-15T11:30:34.064Z,23.00
2019-06-15T11:33:00.493Z,22.70
2019-06-15T11:35:26.781Z,22.70
2019-06-15T11:37:53.091Z,22.60
2019-06-15T11:40:19.464Z,22.40
2019-06-15T11:42:45.897Z,22.30
2019-06-15T11:45:13.017Z,22.30
2019-06-15T11:47:39.469Z,22.40
2019-06-15T11:50:06.543Z,22.50
2019-06-15T11:52:33.096Z,22.30
2019-06-15T11:54:59.420Z,22.00
2019-06-15T11:57:25.713Z,22.00
2019-06-15T11:59:52.043Z,22.00
2019-06-15T12:02:18.334Z,22.10
2019-06-15T12:04:57.693Z,22.20
2019-06-15T12:07:12.873Z,22.00
2019-06-15T12:09:39.533Z,21.90
2019-06-15T12:12:05.934Z,21.80
2019-06-15T12:14:32.240Z,21.90
2019-06-15T12:16:58.524Z,22.00
2019-06-15T12:19:24.848Z,22.00
2019-06-15T12:21:51.154Z,22.10
2019-06-15T12:24:17.460Z,22.00
2019-06-15T12:26:43.759Z,21.90
2019-06-15T12:29:10.168Z,21.90
2019-06-15T12:31:36.472Z,21.90
2019-06-15T12:34:03.019Z,22.20
2019-06-15T12:36:29.300Z,23.10
2019-06-15T12:38:55.592Z,23.60
2019-06-15T12:41:21.886Z,24.30
2019-06-15T12:43:48.584Z,25.20
2019-06-15T12:46:15.125Z,25.20
2019-06-15T12:48:41.417Z,24.70
2019-06-15T12:51:07.704Z,25.90
2019-06-15T12:53:34.024Z,23.70
2019-06-15T12:56:00.339Z,23.30
2019-06-15T12:58:26.669Z,23.30
2019-06-15T13:01:02.361Z,23.20
2019-06-15T13:03:21.194Z,22.90
2019-06-15T13:05:47.524Z,22.80
2019-06-15T13:08:13.912Z,22.90
2019-06-15T13:10:40.243Z,23.10
2019-06-15T13:13:06.813Z,23.50
2019-06-15T13:15:33.433Z,28.30
2019-06-15T13:17:59.756Z,31.10
2019-06-15T13:20:27.919Z,35.40
2019-06-15T13:22:54.230Z,31.20
2019-06-15T13:25:20.537Z,28.50
2019-06-15T13:27:46.837Z,26.90
2019-06-15T13:30:20.811Z,26.10
2019-06-15T13:32:47.394Z,25.40
2019-06-15T13:35:13.784Z,24.90
2019-06-15T13:37:42.360Z,24.70
2019-06-15T13:40:08.356Z,24.60
2019-06-15T13:42:34.676Z,24.40
2019-06-15T13:45:00.996Z,24.30
2019-06-15T13:47:27.297Z,24.40
2019-06-15T13:49:53.619Z,24.10
2019-06-15T13:52:19.923Z,23.80
2019-06-15T13:54:46.258Z,23.60
2019-06-15T13:57:12.641Z,23.20
2019-06-15T13:59:39.993Z,22.90
2019-06-15T14:02:06.465Z,23.00
2019-06-15T14:04:32.837Z,23.20
2019-06-15T14:06:59.231Z,23.30
2019-06-15T14:09:25.528Z,23.40
2019-06-15T14:11:52.133Z,23.40
2019-06-15T14:14:18.536Z,23.00
2019-06-15T14:16:45.001Z,23.00
2019-06-15T14:19:11.339Z,23.00
2019-06-15T14:21:37.665Z,23.00
2019-06-15T14:24:03.958Z,22.80
2019-06-15T14:26:30.487Z,22.80
2019-06-15T14:28:56.906Z,23.00
2019-06-15T14:31:23.250Z,23.00
2019-06-15T14:33:49.588Z,23.00
2019-06-15T14:36:15.868Z,22.80
2019-06-15T14:38:42.156Z,22.70
2019-06-15T14:41:08.613Z,22.70
2019-06-15T14:43:34.937Z,22.90
2019-06-15T14:46:01.378Z,23.00
2019-06-15T14:48:27.913Z,22.80
2019-06-15T14:50:54.259Z,22.70
2019-06-15T14:53:20.564Z,22.70
2019-06-15T14:55:46.876Z,22.60
2019-06-15T14:58:13.173Z,22.90
2019-06-15T15:00:39.517Z,22.90
2019-06-15T15:03:06.900Z,22.90
2019-06-15T15:05:33.414Z,23.40
2019-06-15T15:07:59.728Z,28.10
2019-06-15T15:10:26.645Z,27.40
2019-06-15T15:12:53.327Z,26.50
2019-06-15T15:15:19.857Z,25.50
2019-06-15T15:17:46.185Z,25.30
2019-06-15T15:20:13.908Z,25.50
2019-06-15T15:22:40.215Z,25.50
2019-06-15T15:25:06.806Z,25.50
2019-06-15T15:27:33.116Z,25.20
2019-06-15T15:29:59.425Z,25.50
2019-06-15T15:32:31.077Z,25.30
2019-06-15T15:34:55.949Z,24.30
2019-06-15T15:37:22.248Z,24.00
2019-06-15T15:39:48.693Z,23.80
2019-06-15T15:42:16.985Z,23.70
2019-06-15T15:44:43.358Z,23.70
2019-06-15T15:47:09.682Z,23.90
2019-06-15T15:49:36.651Z,23.90
2019-06-15T15:52:03.500Z,23.80
2019-06-15T15:54:29.796Z,23.80
2019-06-15T15:56:56.096Z,24.00
2019-06-15T15:59:22.455Z,24.10
2019-06-15T16:01:48.911Z,23.80
2019-06-15T16:04:17.029Z,23.80
2019-06-15T16:06:43.900Z,24.00
2019-06-15T16:09:22.484Z,24.10
2019-06-15T16:11:48.854Z,24.20
2019-06-15T16:14:16.494Z,24.10
2019-06-15T16:16:43.061Z,24.10
2019-06-15T16:19:09.384Z,24.00
2019-06-15T16:21:36.742Z,23.80
2019-06-15T16:24:03.553Z,23.80
2019-06-15T16:26:29.924Z,24.00
2019-06-15T16:28:56.405Z,24.10
2019-06-15T16:31:25.848Z,24.10
2019-06-15T16:33:51.117Z,24.00
2019-06-15T16:36:17.496Z,24.10
2019-06-15T16:38:46.779Z,24.20
2019-06-15T16:41:12.267Z,24.30
2019-06-15T16:43:38.612Z,24.10
2019-06-15T16:46:06.403Z,24.30
2019-06-15T16:48:33.057Z,24.20
2019-06-15T16:50:59.348Z,24.30
2019-06-15T16:53:26.033Z,24.60
2019-06-15T16:55:52.541Z,24.40
2019-06-15T16:58:18.871Z,24.30
2019-06-15T17:00:47.469Z,24.20
2019-06-15T17:03:21.994Z,24.10
2019-06-15T17:05:41.729Z,24.40
2019-06-15T17:08:08.006Z,24.60
2019-06-15T17:10:37.993Z,24.70
2019-06-15T17:13:06.619Z,24.60
2019-06-15T17:15:32.785Z,24.50
2019-06-15T17:17:59.116Z,24.60
2019-06-15T17:20:27.435Z,24.50
2019-06-15T17:22:56.225Z,24.30
2019-06-15T17:25:22.340Z,24.30
2019-06-15T17:27:48.632Z,24.40
2019-06-15T17:30:17.253Z,24.40
2019-06-15T17:32:43.232Z,24.40
2019-06-15T17:35:09.722Z,24.60
2019-06-15T17:37:36.453Z,24.70
2019-06-15T17:40:03.408Z,24.60
2019-06-15T17:42:29.776Z,24.70
2019-06-15T17:44:57.157Z,24.90
2019-06-15T17:47:26.110Z,24.90
2019-06-15T17:49:52.129Z,24.80
2019-06-15T17:52:18.423Z,24.60
2019-06-15T17:54:46.717Z,24.70
2019-06-15T17:57:12.956Z,24.60
2019-06-15T17:59:39.267Z,24.50
2019-06-15T18:02:06.282Z,24.50
2019-06-15T18:04:32.774Z,24.60
2019-06-15T18:06:59.077Z,24.80
2019-06-15T18:09:25.914Z,24.50
2019-06-15T18:11:52.407Z,24.30
2019-06-15T18:14:18.683Z,24.20
2019-06-15T18:16:47.089Z,24.20
2019-06-15T18:19:13.317Z,24.30
2019-06-15T18:21:41.125Z,24.40
2019-06-15T18:24:07.771Z,24.20
2019-06-15T18:26:36.388Z,24.30
2019-06-15T18:29:02.783Z,23.90
2019-06-15T18:31:29.098Z,23.90
2019-06-15T18:34:06.457Z,23.80
2019-06-15T18:36:26.097Z,23.90
2019-06-15T18:38:52.211Z,23.80
2019-06-15T18:41:18.512Z,23.80
2019-06-15T18:43:45.065Z,23.80
2019-06-15T18:46:11.363Z,23.80
2019-06-15T18:48:37.995Z,23.90
2019-06-15T18:51:07.399Z,23.70
2019-06-15T18:53:35.473Z,23.70
2019-06-15T18:56:00.746Z,23.70
2019-06-15T18:58:27.042Z,23.60
2019-06-15T19:00:53.415Z,23.60
2019-06-15T19:03:19.876Z,23.50
2019-06-15T19:05:46.348Z,23.60
2019-06-15T19:08:12.868Z,23.60
2019-06-15T19:10:39.165Z,23.50
2019-06-15T19:13:07.558Z,23.50
2019-06-15T19:15:33.864Z,23.50
2019-06-15T19:18:00.295Z,23.30
2019-06-15T19:20:26.604Z,23.20
2019-06-15T19:22:52.956Z,23.00
2019-06-15T19:25:19.317Z,23.00
2019-06-15T19:27:45.624Z,23.00
2019-06-15T19:30:12.021Z,22.90
2019-06-15T19:32:38.359Z,22.80
2019-06-15T19:35:04.996Z,22.60
2019-06-15T19:37:33.890Z,22.50
2019-06-15T19:39:59.528Z,22.50
2019-06-15T19:42:26.023Z,22.70
2019-06-15T19:44:52.509Z,22.60
2019-06-15T19:47:18.804Z,22.70
2019-06-15T19:49:46.674Z,22.50
2019-06-15T19:52:13.200Z,22.50
2019-06-15T19:54:39.493Z,22.50
2019-06-15T19:57:06.783Z,22.50
2019-06-15T19:59:33.432Z,22.30
2019-06-15T20:01:59.793Z,22.10
2019-06-15T20:04:27.041Z,22.10
2019-06-15T20:06:53.647Z,22.10
2019-06-15T20:09:19.933Z,22.30
2019-06-15T20:11:46.947Z,22.20
2019-06-15T20:14:13.411Z,22.20
2019-06-15T20:16:39.710Z,22.10
2019-06-15T20:19:06.879Z,22.10
2019-06-15T20:21:33.333Z,22.10
2019-06-15T20:23:59.661Z,22.00
2019-06-15T20:26:26.781Z,21.90
2019-06-15T20:28:53.283Z,21.90
2019-06-15T20:31:19.604Z,21.90
2019-06-15T20:33:46.618Z,22.00
2019-06-15T20:36:13.178Z,21.90
2019-06-15T20:38:39.484Z,22.10
2019-06-15T20:41:07.332Z,21.80
2019-06-15T20:43:36.417Z,21.80
2019-06-15T20:46:02.193Z,21.70
2019-06-15T20:48:28.555Z,21.70
2019-06-15T20:50:56.730Z,21.40
2019-06-15T20:53:23.125Z,21.40
2019-06-15T20:55:49.437Z,21.30
2019-06-15T20:58:16.960Z,21.30
2019-06-15T21:00:43.844Z,21.50
2019-06-15T21:03:10.409Z,21.60
2019-06-15T21:05:41.611Z,21.50
2019-06-15T21:08:06.841Z,21.30
2019-06-15T21:10:33.197Z,21.10
2019-06-15T21:12:59.516Z,20.90
2019-06-15T21:15:27.844Z,20.80
2019-06-15T21:17:54.168Z,20.70
2019-06-15T21:20:21.709Z,20.70
2019-06-15T21:22:47.997Z,20.70
2019-06-15T21:25:17.378Z,20.70
2019-06-15T21:27:42.707Z,20.80
2019-06-15T21:30:09.546Z,20.80
2019-06-15T21:32:36.927Z,21.00
2019-06-15T21:35:03.692Z,20.90
2019-06-15T21:37:30.077Z,20.60
2019-06-15T21:39:56.409Z,20.70
2019-06-15T21:42:22.713Z,20.70
2019-06-15T21:44:49.042Z,20.70
2019-06-15T21:47:15.406Z,20.50
2019-06-15T21:49:41.950Z,20.50
2019-06-15T21:52:08.323Z,20.40
2019-06-15T21:54:36.051Z,20.10
2019-06-15T21:57:02.812Z,20.10
2019-06-15T21:59:29.129Z,19.90
2019-06-15T22:01:55.452Z,19.90
2019-06-15T22:04:21.753Z,19.90
2019-06-15T22:06:48.059Z,20.10
2019-06-15T22:09:17.637Z,20.20
2019-06-15T22:11:42.601Z,20.20
2019-06-15T22:14:08.880Z,19.90
2019-06-15T22:16:35.200Z,19.80
2019-06-15T22:19:01.514Z,19.70
2019-06-15T22:21:28.170Z,19.50
2019-06-15T22:23:55.879Z,19.70
2019-06-15T22:26:22.329Z,19.70
2019-06-15T22:28:48.632Z,19.70
2019-06-15T22:31:17.021Z,19.60
2019-06-15T22:33:43.201Z,19.40
2019-06-15T22:36:21.213Z,19.30
2019-06-15T22:38:37.764Z,19.20
2019-06-15T22:41:06.015Z,19.20
2019-06-15T22:43:32.316Z,19.30
2019-06-15T22:45:58.653Z,19.20
2019-06-15T22:48:27.013Z,19.20
2019-06-15T22:50:53.166Z,19.40
2019-06-15T22:53:20.007Z,19.10
2019-06-15T22:55:46.645Z,19.10
2019-06-15T22:58:12.949Z,19.20
2019-06-15T23:00:39.251Z,19.20
2019-06-15T23:03:06.345Z,19.10
2019-06-15T23:05:33.291Z,19.00
2019-06-15T23:07:59.657Z,18.90
2019-06-15T23:10:26.011Z,19.10
2019-06-15T23:12:52.332Z,19.10
2019-06-15T23:15:18.731Z,19.00
2019-06-15T23:17:46.693Z,19.10
2019-06-15T23:20:16.897Z,18.90
2019-06-15T23:22:42.390Z,18.90
2019-06-15T23:25:10.605Z,19.00
2019-06-15T23:27:37.377Z,19.00
2019-06-15T23:30:06.581Z,18.90
2019-06-15T23:32:32.145Z,19.00
2019-06-15T23:34:58.530Z,18.90
2019-06-15T23:37:26.646Z,18.70
2019-06-15T23:40:11.651Z,18.80
2019-06-15T23:42:38.030Z,18.70
2019-06-15T23:45:06.752Z,18.60
2019-06-15T23:47:32.675Z,18.60
2019-06-15T23:49:59.020Z,18.60
2019-06-15T23:52:26.924Z,18.60
2019-06-15T23:54:53.409Z,18.50
2019-06-15T23:57:19.747Z,18.40
2019-06-15T23:59:46.529Z,18.20
